createdAt,value
2023-03-23T15:59:12.294Z,6.55
2023-03-23T16:01:58.125Z,5.90
2023-03-23T16:04:46.238Z,5.40
2023-03-23T16:07:33.514Z,5.90
2023-03-23T16:10:23.122Z,7.25
2023-03-23T16:13:10.558Z,10.27
2023-03-23T16:15:56.604Z,8.15
2023-03-23T16:18:42.553Z,7.95
2023-03-23T16:21:28.398Z,8.40
2023-03-23T16:24:14.205Z,9.18
2023-03-23T16:27:00.111Z,8.70
2023-03-23T16:30:02.227Z,8.43
2023-03-23T16:32:49.721Z,9.98
2023-03-23T16:35:37.957Z,9.75
2023-03-23T16:38:23.619Z,8.65
2023-03-23T16:41:09.718Z,10.45
2023-03-23T16:43:55.601Z,10.30
2023-03-23T16:46:41.468Z,9.45
2023-03-23T16:49:27.453Z,10.10
2023-03-23T16:52:13.173Z,10.65
2023-03-23T16:54:59.184Z,10.90
2023-03-23T16:57:45.655Z,12.70
2023-03-23T17:00:31.572Z,12.05
2023-03-23T17:03:19.678Z,12.48
2023-03-23T17:06:06.206Z,12.55
2023-03-23T17:08:52.295Z,15.85
2023-03-23T17:11:38.301Z,16.55
2023-03-23T17:14:24.258Z,21.38
2023-03-23T17:17:10.303Z,19.83
2023-03-23T17:19:56.599Z,17.65
2023-03-23T17:22:42.710Z,15.73
2023-03-23T17:25:30.758Z,16.45
2023-03-23T17:28:19.419Z,15.95
2023-03-23T17:31:06.636Z,14.32
2023-03-23T17:33:52.852Z,13.35
2023-03-23T17:36:39.149Z,16.77
2023-03-23T17:39:24.974Z,15.40
2023-03-23T17:42:10.907Z,16.67
2023-03-23T17:44:56.864Z,16.95
2023-03-23T17:47:42.846Z,19.75
2023-03-23T17:50:29.047Z,23.13
2023-03-23T17:53:15.499Z,22.33
2023-03-23T17:56:01.865Z,23.40
2023-03-23T17:58:47.611Z,21.83
2023-03-23T18:01:34.187Z,11.85
2023-03-23T18:04:20.466Z,9.38
2023-03-23T18:07:06.468Z,10.75
2023-03-23T18:09:52.238Z,12.80
2023-03-23T18:12:39.878Z,14.65
2023-03-23T18:15:28.428Z,19.65
2023-03-23T18:18:30.170Z,23.77
2023-03-23T18:21:16.651Z,25.83
2023-03-23T18:24:03.612Z,28.02
2023-03-23T18:26:49.690Z,30.42
2023-03-23T18:29:35.715Z,28.58
2023-03-23T18:32:21.919Z,20.27
2023-03-23T18:35:09.947Z,17.95
2023-03-23T18:37:55.833Z,11.43
2023-03-23T18:40:46.376Z,9.52
2023-03-23T18:43:32.481Z,9.32
2023-03-23T18:46:18.440Z,10.77
2023-03-23T18:49:04.496Z,10.73
2023-03-23T18:51:50.871Z,11.25
2023-03-23T18:54:38.313Z,11.95
2023-03-23T18:57:24.460Z,10.45
2023-03-23T19:00:11.118Z,11.50
2023-03-23T19:02:57.305Z,12.32
2023-03-23T19:05:44.618Z,11.40
2023-03-23T19:08:31.124Z,8.55
2023-03-23T19:11:17.234Z,8.85
2023-03-23T19:14:03.784Z,8.25
2023-03-23T19:16:50.309Z,10.00
2023-03-23T19:19:36.763Z,10.77
2023-03-23T19:22:23.181Z,12.15
2023-03-23T19:25:09.648Z,13.93
2023-03-23T19:30:49.949Z,10.02
2023-03-23T19:33:36.420Z,11.23
2023-03-23T19:36:24.571Z,10.98
2023-03-23T19:39:11.289Z,11.10
2023-03-23T19:41:57.295Z,11.50
2023-03-23T19:44:43.627Z,10.43
2023-03-23T19:47:30.059Z,10.02
2023-03-23T19:50:16.708Z,12.20
2023-03-23T19:53:02.758Z,10.65
2023-03-23T19:55:48.912Z,10.30
2023-03-23T19:58:35.460Z,11.48
2023-03-23T20:01:22.226Z,12.65
2023-03-23T20:04:09.577Z,12.43
2023-03-23T20:06:57.075Z,15.55
2023-03-23T20:09:42.940Z,16.02
2023-03-23T20:12:28.997Z,15.02
2023-03-23T20:15:15.475Z,18.83
2023-03-23T20:18:01.759Z,14.80
2023-03-23T20:20:51.674Z,14.90
2023-03-23T20:23:40.373Z,15.82
2023-03-23T20:26:30.962Z,14.73
2023-03-23T20:29:16.874Z,13.35
2023-03-23T20:32:02.874Z,15.60
2023-03-23T20:34:49.556Z,15.23
2023-03-23T20:37:39.883Z,13.73
2023-03-23T20:40:26.175Z,13.10
2023-03-23T20:43:13.958Z,12.77
2023-03-23T20:46:01.890Z,10.57
2023-03-23T20:48:49.840Z,10.98
2023-03-23T20:51:48.877Z,12.38
2023-03-23T20:54:35.755Z,11.38
2023-03-23T20:57:22.387Z,11.05
2023-03-23T21:00:10.322Z,10.50
2023-03-23T21:02:57.007Z,9.95
2023-03-23T21:05:45.126Z,11.43
2023-03-23T21:08:31.261Z,12.80
2023-03-23T21:11:19.982Z,21.73
2023-03-23T21:14:06.012Z,11.98
2023-03-23T21:16:52.301Z,10.57
2023-03-23T21:19:38.317Z,10.30
2023-03-23T21:22:24.741Z,11.05
2023-03-23T21:25:10.800Z,9.68
2023-03-23T21:27:57.088Z,10.05
2023-03-23T21:30:45.381Z,9.00
2023-03-23T21:33:32.311Z,11.40
2023-03-23T21:36:18.458Z,11.40
2023-03-23T21:39:06.170Z,10.88
2023-03-23T21:41:52.114Z,11.52
2023-03-23T21:44:39.192Z,10.98
2023-03-23T21:47:26.643Z,10.70
2023-03-23T21:50:14.108Z,9.52
2023-03-23T21:53:01.510Z,9.45
2023-03-23T21:55:51.805Z,10.50
2023-03-23T21:58:38.459Z,10.40
2023-03-23T22:01:24.663Z,10.90
2023-03-23T22:04:11.332Z,11.60
2023-03-23T22:06:57.210Z,11.52
2023-03-23T22:09:44.943Z,12.77
2023-03-23T22:12:30.701Z,14.07
2023-03-23T22:15:16.895Z,13.88
2023-03-23T22:18:03.322Z,11.55
2023-03-23T22:20:50.084Z,10.70
2023-03-23T22:23:36.820Z,11.57
2023-03-23T22:26:23.760Z,11.25
2023-03-23T22:29:11.304Z,12.15
2023-03-23T22:31:57.138Z,11.60
2023-03-23T22:34:43.476Z,11.40
2023-03-23T22:37:29.600Z,11.85
2023-03-23T22:40:15.679Z,11.77
2023-03-23T22:43:01.573Z,11.95
2023-03-23T22:45:53.042Z,15.85
2023-03-23T22:48:39.415Z,10.90
2023-03-23T22:51:25.779Z,12.95
2023-03-23T22:54:12.042Z,11.40
2023-03-23T22:56:58.247Z,10.80
2023-03-23T22:59:48.447Z,11.93
2023-03-23T23:02:34.735Z,12.18
2023-03-23T23:05:20.394Z,11.43
2023-03-23T23:08:06.413Z,10.38
2023-03-23T23:10:54.491Z,11.02
2023-03-23T23:13:41.364Z,9.63
2023-03-23T23:16:27.758Z,10.80
2023-03-23T23:19:14.790Z,10.40
2023-03-23T23:22:12.547Z,9.82
2023-03-23T23:25:04.580Z,10.18
2023-03-23T23:27:50.874Z,9.02
2023-03-23T23:30:36.965Z,9.05
2023-03-23T23:33:23.235Z,9.60
2023-03-23T23:36:09.921Z,10.00
2023-03-23T23:38:57.147Z,10.27
2023-03-23T23:41:43.195Z,10.00
2023-03-23T23:44:29.150Z,10.95
2023-03-23T23:47:14.887Z,11.73
2023-03-23T23:50:01.647Z,10.52
2023-03-23T23:52:47.397Z,10.00
2023-03-23T23:55:33.407Z,10.00
2023-03-23T23:58:20.882Z,9.27
